Time;durP1;ratioP1;P1;durP2;ratioP2;P2;SDS_P1;SDS_P2;PMS_P1;PMS_P2;Temp;Humidity;BMP_temperature;BMP_pressure;BME280_temperature;BME280_humidity;BME280_pressure;Samples;Min_cycle;Max_cycle;Signal;HPM_P1;HPM_P2
2021/11/20 00:00:08;;;;;;;8.95;5.60;;;12.40;72.40;;;;;;4405714;29;20134;-67
2021/11/20 00:02:52;;;;;;;10.30;6.32;;;12.30;72.20;;;;;;4404935;29;20058;-67
2021/11/20 00:05:14;;;;;;;12.73;6.53;;;12.30;72.20;;;;;;4405924;29;20498;-68
2021/11/20 00:07:31;;;;;;;10.32;6.28;;;12.30;72.30;;;;;;4404987;29;20055;-67
2021/11/20 00:09:50;;;;;;;8.38;5.90;;;12.20;72.20;;;;;;4404738;29;20054;-68
2021/11/20 00:12:10;;;;;;;8.60;6.05;;;12.20;72.20;;;;;;4404872;29;20497;-67
2021/11/20 00:14:31;;;;;;;8.00;6.35;;;12.20;72.40;;;;;;4406092;29;20103;-67
2021/11/20 00:16:51;;;;;;;7.97;6.03;;;12.20;72.40;;;;;;4404266;29;20208;-68
2021/11/20 00:19:11;;;;;;;8.57;6.32;;;12.20;72.30;;;;;;4404358;29;20423;-67
2021/11/20 00:21:31;;;;;;;10.90;6.63;;;12.20;72.20;;;;;;4405007;29;20066;-66
2021/11/20 00:23:50;;;;;;;10.00;6.78;;;12.20;72.10;;;;;;4405151;29;20054;-67
2021/11/20 00:26:12;;;;;;;9.50;5.97;;;12.20;72.10;;;;;;4388628;29;20090;-68
2021/11/20 00:28:41;;;;;;;8.75;6.35;;;12.10;72.10;;;;;;4404135;29;20054;-68
2021/11/20 00:31:06;;;;;;;9.23;6.72;;;12.20;72.10;;;;;;4404418;29;20088;-69
2021/11/20 00:33:26;;;;;;;8.75;6.22;;;12.10;72.90;;;;;;4403881;29;20065;-69
2021/11/20 00:35:45;;;;;;;10.13;6.40;;;12.10;72.00;;;;;;4403167;29;20054;-68
2021/11/20 00:38:02;;;;;;;8.18;6.28;;;12.10;72.20;;;;;;4403453;29;20055;-68
2021/11/20 00:40:29;;;;;;;9.75;6.47;;;12.10;72.20;;;;;;4404617;29;20054;-69
2021/11/20 00:42:46;;;;;;;;;;;12.10;72.10;;;;;;4403029;29;20046;-68
2021/11/20 00:45:08;;;;;;;8.90;6.18;;;12.00;71.70;;;;;;4403683;29;20218;-66
2021/11/20 00:47:27;;;;;;;9.30;6.45;;;12.00;72.00;;;;;;4403561;29;20065;-66
2021/11/20 00:49:46;;;;;;;7.85;6.13;;;12.00;72.10;;;;;;4403674;29;20074;-67
2021/11/20 00:52:05;;;;;;;8.60;6.13;;;11.90;72.00;;;;;;4403551;29;20096;-66
2021/11/20 00:54:23;;;;;;;9.32;6.65;;;11.90;72.00;;;;;;4403777;29;20759;-67
2021/11/20 00:56:40;;;;;;;7.55;5.53;;;11.90;72.00;;;;;;4401333;29;20521;-67
2021/11/20 00:58:59;;;;;;;10.68;6.70;;;11.90;72.10;;;;;;4402766;29;20104;-67
2021/11/20 01:01:21;;;;;;;7.68;6.00;;;11.90;72.10;;;;;;4402003;29;20054;-67
2021/11/20 01:03:42;;;;;;;8.60;5.93;;;11.90;72.10;;;;;;4402117;29;20065;-67
2021/11/20 01:06:00;;;;;;;6.70;5.53;;;11.80;72.00;;;;;;4402008;29;20154;-67
2021/11/20 01:08:22;;;;;;;6.55;5.45;;;11.80;72.00;;;;;;4403703;29;20140;-67
2021/11/20 01:10:42;;;;;;;8.55;5.80;;;11.80;72.10;;;;;;4404121;29;20051;-69
2021/11/20 01:13:00;;;;;;;7.95;5.68;;;11.80;72.10;;;;;;4403745;29;20071;-68
2021/11/20 01:15:24;;;;;;;7.43;5.60;;;11.80;71.90;;;;;;4403066;29;20050;-67
2021/11/20 01:17:42;;;;;;;8.95;5.70;;;11.80;72.10;;;;;;4402189;29;20096;-68
2021/11/20 01:20:01;;;;;;;7.28;5.75;;;11.70;72.00;;;;;;4403397;29;20491;-68
2021/11/20 01:22:36;;;;;;;7.70;5.47;;;11.70;71.90;;;;;;4402011;29;20079;-68
2021/11/20 01:25:15;;;;;;;7.70;5.82;;;11.70;71.90;;;;;;4400501;29;20131;-68
2021/11/20 01:27:51;;;;;;;7.03;5.60;;;11.70;72.00;;;;;;4403899;29;20507;-67
2021/11/20 01:30:27;;;;;;;10.07;6.10;;;11.70;71.90;;;;;;4403450;29;20151;-69
2021/11/20 01:32:46;;;;;;;7.18;5.15;;;11.70;71.90;;;;;;4403199;29;20051;-67
2021/11/20 01:35:07;;;;;;;9.75;6.00;;;11.70;71.80;;;;;;4401701;29;20404;-66
2021/11/20 01:37:28;;;;;;;;;;;11.70;71.80;;;;;;4403951;29;20051;-67
2021/11/20 01:39:47;;;;;;;8.38;5.78;;;11.70;71.70;;;;;;4401831;29;19925;-67
2021/11/20 01:42:19;;;;;;;7.82;5.70;;;11.60;71.90;;;;;;4403114;29;20051;-67
2021/11/20 01:44:42;;;;;;;;;;;11.60;71.90;;;;;;4402651;29;20130;-67
2021/11/20 01:47:16;;;;;;;7.55;5.20;;;11.60;71.80;;;;;;4402913;29;19925;-68
2021/11/20 01:49:38;;;;;;;8.20;5.75;;;11.60;72.00;;;;;;4403664;29;20058;-67
2021/11/20 01:52:04;;;;;;;19.30;6.88;;;11.50;72.00;;;;;;4402360;29;20054;-67
2021/11/20 01:54:34;;;;;;;10.93;6.15;;;11.60;72.10;;;;;;4402893;29;20059;-68
2021/11/20 01:57:28;;;;;;;8.15;6.28;;;11.60;72.10;;;;;;4394578;29;20067;-68
2021/11/20 01:59:50;;;;;;;8.50;6.05;;;11.60;72.10;;;;;;4403027;29;20432;-68
2021/11/20 02:02:32;;;;;;;8.20;5.70;;;11.50;72.10;;;;;;4403327;29;20564;-69
2021/11/20 02:05:11;;;;;;;9.63;6.07;;;11.60;72.20;;;;;;4401909;29;20058;-67
2021/11/20 02:07:47;;;;;;;9.13;6.55;;;11.50;72.20;;;;;;4403234;29;20055;-67
2021/11/20 02:10:11;;;;;;;8.23;5.78;;;11.60;72.40;;;;;;4386741;29;20059;-68
2021/11/20 02:12:39;;;;;;;8.07;5.57;;;11.50;72.30;;;;;;4389507;29;20077;-67
2021/11/20 02:15:04;;;;;;;9.95;6.10;;;11.50;72.30;;;;;;4389974;29;20062;-68
2021/11/20 02:17:24;;;;;;;8.23;5.55;;;11.60;72.40;;;;;;4407078;29;20058;-68
2021/11/20 02:19:48;;;;;;;8.48;6.10;;;11.50;72.30;;;;;;4406134;29;20081;-68
2021/11/20 02:22:14;;;;;;;6.75;5.10;;;11.60;72.40;;;;;;4405342;29;20597;-68
2021/11/20 02:24:31;;;;;;;8.48;6.25;;;11.60;72.30;;;;;;4390595;29;20462;-67
2021/11/20 02:27:10;;;;;;;8.23;5.63;;;11.60;72.30;;;;;;4405772;29;20054;-68
2021/11/20 02:29:31;;;;;;;;;;;11.60;72.20;;;;;;4406579;29;20085;-68
2021/11/20 02:32:04;;;;;;;8.07;6.05;;;11.60;72.80;;;;;;4404338;29;20357;-68
2021/11/20 02:34:52;;;;;;;7.75;5.85;;;11.60;72.20;;;;;;4398580;29;20051;-68
2021/11/20 02:37:12;;;;;;;9.18;5.95;;;11.60;72.20;;;;;;4404803;29;20492;-68
2021/11/20 02:39:33;;;;;;;7.95;5.82;;;11.60;72.10;;;;;;4405069;29;20055;-67
2021/11/20 02:41:52;;;;;;;7.38;5.50;;;11.60;72.10;;;;;;4405058;29;20108;-68
2021/11/20 02:44:13;;;;;;;8.82;5.90;;;11.70;72.20;;;;;;4404532;29;20055;-68
2021/11/20 02:46:33;;;;;;;8.50;5.47;;;11.60;72.10;;;;;;4405634;29;20561;-68
2021/11/20 02:48:54;;;;;;;9.35;6.32;;;11.70;72.10;;;;;;4404053;29;20074;-68
2021/11/20 02:51:14;;;;;;;8.27;5.78;;;11.60;72.10;;;;;;4405618;29;20047;-69
2021/11/20 02:53:36;;;;;;;7.10;5.43;;;11.60;72.10;;;;;;4403907;29;20055;-69
2021/11/20 02:55:54;;;;;;;8.63;5.90;;;11.60;72.90;;;;;;4405337;29;20073;-67
2021/11/20 02:58:21;;;;;;;8.27;5.38;;;11.60;72.20;;;;;;4404174;29;20539;-68
2021/11/20 03:00:40;;;;;;;7.38;5.80;;;11.60;72.20;;;;;;4390642;29;20043;-68
2021/11/20 03:02:58;;;;;;;7.18;5.15;;;11.60;72.20;;;;;;4405726;29;20410;-67
2021/11/20 03:05:20;;;;;;;7.30;5.07;;;11.60;72.20;;;;;;4404624;29;20063;-68
2021/11/20 03:07:40;;;;;;;7.80;5.13;;;11.60;72.40;;;;;;4405692;29;20047;-68
2021/11/20 03:09:57;;;;;;;6.50;5.22;;;11.50;73.00;;;;;;4404336;29;20082;-67
2021/11/20 03:12:15;;;;;;;7.82;5.70;;;11.60;72.30;;;;;;4404693;29;20054;-67
2021/11/20 03:14:40;;;;;;;8.73;4.90;;;11.60;73.10;;;;;;4403920;29;20514;-68
2021/11/20 03:17:00;;;;;;;7.43;5.80;;;11.60;72.40;;;;;;4405089;29;20463;-67
2021/11/20 03:19:18;;;;;;;9.50;5.35;;;11.50;72.30;;;;;;4404913;29;20426;-66
2021/11/20 03:21:41;;;;;;;7.35;5.43;;;11.50;72.30;;;;;;4405108;29;20585;-66
2021/11/20 03:24:01;;;;;;;7.15;4.95;;;11.50;72.30;;;;;;4404274;29;20058;-67
2021/11/20 03:26:18;;;;;;;7.68;5.30;;;11.50;72.40;;;;;;4404837;29;20058;-67
2021/11/20 03:28:36;;;;;;;6.65;5.15;;;11.50;72.50;;;;;;4404728;29;20403;-67
2021/11/20 03:30:54;;;;;;;6.63;5.07;;;11.50;72.50;;;;;;4404726;29;20062;-69
2021/11/20 03:33:12;;;;;;;6.68;5.13;;;11.50;72.50;;;;;;4404974;29;20058;-67
2021/11/20 03:35:32;;;;;;;7.50;5.28;;;11.50;72.50;;;;;;4404432;29;20047;-67
2021/11/20 03:38:05;;;;;;;7.93;5.25;;;11.50;72.50;;;;;;4404195;29;20054;-67
2021/11/20 03:40:23;;;;;;;7.82;5.38;;;11.50;72.50;;;;;;4405139;29;20122;-67
2021/11/20 03:42:42;;;;;;;7.20;5.03;;;11.50;72.50;;;;;;4404389;29;20413;-69
2021/11/20 03:45:00;;;;;;;6.53;4.85;;;11.40;72.40;;;;;;4404210;29;20129;-67
2021/11/20 03:47:20;;;;;;;8.98;4.45;;;11.50;72.40;;;;;;4404537;29;20464;-67
2021/11/20 03:49:38;;;;;;;11.80;5.40;;;11.50;72.30;;;;;;4404292;29;20119;-67
2021/11/20 03:51:56;;;;;;;6.65;5.35;;;11.40;72.40;;;;;;4405900;29;20134;-67
2021/11/20 03:54:15;;;;;;;7.30;5.00;;;11.50;72.40;;;;;;4402918;29;20053;-67
2021/11/20 03:56:34;;;;;;;5.88;4.60;;;11.50;73.10;;;;;;4404405;29;20073;-69
2021/11/20 03:58:53;;;;;;;6.97;5.53;;;11.40;72.30;;;;;;4404412;29;20133;-68
2021/11/20 04:01:14;;;;;;;5.38;4.57;;;11.40;72.30;;;;;;4404272;29;20057;-69
2021/11/20 04:03:31;;;;;;;6.80;5.20;;;11.40;72.40;;;;;;4403480;29;20388;-68
2021/11/20 04:05:51;;;;;;;6.93;5.15;;;11.40;72.30;;;;;;4404173;29;20058;-67
2021/11/20 04:08:13;;;;;;;6.60;4.93;;;11.40;72.30;;;;;;4403418;29;20074;-68
2021/11/20 04:10:43;;;;;;;7.18;5.38;;;11.40;72.20;;;;;;4403554;29;20059;-67
2021/11/20 04:13:01;;;;;;;7.03;4.80;;;11.40;72.20;;;;;;4404994;29;20135;-67
2021/11/20 04:15:21;;;;;;;5.65;4.70;;;11.40;72.20;;;;;;4404259;29;20050;-67
2021/11/20 04:17:39;;;;;;;6.00;4.75;;;11.40;72.10;;;;;;4404056;29;20047;-68
2021/11/20 04:19:56;;;;;;;6.00;4.78;;;11.40;72.10;;;;;;4402653;29;20055;-68
2021/11/20 04:22:14;;;;;;;8.98;4.47;;;11.40;72.00;;;;;;4405250;29;20055;-68
2021/11/20 04:24:31;;;;;;;6.88;4.43;;;11.40;72.00;;;;;;4402477;29;20129;-68
2021/11/20 04:26:56;;;;;;;5.63;4.63;;;11.40;71.90;;;;;;4405310;29;20050;-68
2021/11/20 04:29:22;;;;;;;8.75;5.25;;;11.40;71.90;;;;;;4402567;29;20054;-68
2021/11/20 04:31:40;;;;;;;7.25;4.60;;;11.40;71.90;;;;;;4404858;29;20491;-68
2021/11/20 04:33:58;;;;;;;6.07;4.30;;;11.30;71.80;;;;;;4402750;29;20062;-68
2021/11/20 04:36:17;;;;;;;5.40;4.43;;;11.40;71.70;;;;;;4387812;29;20055;-68
2021/11/20 04:38:35;;;;;;;6.00;4.60;;;11.30;71.70;;;;;;4402944;29;20540;-67
2021/11/20 04:40:53;;;;;;;9.02;4.70;;;11.30;71.60;;;;;;4403109;29;20055;-68
2021/11/20 04:43:12;;;;;;;5.90;4.57;;;11.30;71.60;;;;;;4403215;29;20114;-69
2021/11/20 04:45:33;;;;;;;5.68;4.53;;;11.30;71.60;;;;;;4402836;29;20440;-68
2021/11/20 04:47:51;;;;;;;5.05;4.05;;;11.30;71.50;;;;;;4403477;29;20051;-67
2021/11/20 04:50:16;;;;;;;10.10;4.77;;;11.30;71.40;;;;;;4402414;29;20053;-67
2021/11/20 04:52:33;;;;;;;6.45;4.47;;;11.30;71.40;;;;;;4404962;29;20410;-67
2021/11/20 04:54:50;;;;;;;5.97;4.68;;;11.30;71.40;;;;;;4402062;29;20126;-69
2021/11/20 04:57:19;;;;;;;8.73;4.88;;;11.30;71.40;;;;;;4403427;29;20103;-67
2021/11/20 04:59:41;;;;;;;5.78;4.53;;;11.30;71.30;;;;;;4402384;29;20134;-67
2021/11/20 05:01:59;;;;;;;7.18;5.10;;;11.30;71.30;;;;;;4404602;29;20133;-66
2021/11/20 05:04:18;;;;;;;7.35;5.13;;;11.30;71.30;;;;;;4402259;29;20611;-66
2021/11/20 05:06:35;;;;;;;6.90;4.60;;;11.30;71.20;;;;;;4403046;29;20717;-66
2021/11/20 05:08:59;;;;;;;7.90;5.25;;;11.30;71.30;;;;;;4402640;29;20063;-66
2021/11/20 05:11:18;;;;;;;6.25;4.70;;;11.30;71.20;;;;;;4402850;29;20478;-66
2021/11/20 05:13:38;;;;;;;8.15;5.05;;;11.30;71.20;;;;;;4403164;29;20092;-66
2021/11/20 05:15:58;;;;;;;5.85;4.68;;;11.30;71.20;;;;;;4402313;29;20553;-68
2021/11/20 05:18:17;;;;;;;7.20;4.90;;;11.30;71.20;;;;;;4403173;29;20055;-65
2021/11/20 05:20:55;;;;;;;6.65;5.13;;;11.30;71.20;;;;;;4402942;29;20149;-67
2021/11/20 05:23:16;;;;;;;8.05;5.60;;;11.20;71.20;;;;;;4404616;29;20059;-66
2021/11/20 05:25:36;;;;;;;7.15;5.05;;;11.20;71.10;;;;;;4401907;29;20055;-66
2021/11/20 05:27:54;;;;;;;6.10;4.85;;;11.20;71.20;;;;;;4403263;29;20926;-66
2021/11/20 05:30:18;;;;;;;7.63;4.95;;;11.20;71.20;;;;;;4402202;29;20467;-66
2021/11/20 05:32:37;;;;;;;18.98;5.80;;;11.20;71.10;;;;;;4404132;29;20055;-66
2021/11/20 05:34:57;;;;;;;9.88;5.60;;;11.20;71.00;;;;;;4402630;29;20479;-66
2021/11/20 05:37:16;;;;;;;7.63;5.35;;;11.20;71.00;;;;;;4402387;29;20046;-66
2021/11/20 05:39:34;;;;;;;7.28;5.20;;;11.20;71.00;;;;;;4402661;29;20129;-67
2021/11/20 05:41:54;;;;;;;6.50;4.80;;;11.20;70.90;;;;;;4402141;29;20061;-67
2021/11/20 05:44:15;;;;;;;8.77;5.70;;;11.20;71.70;;;;;;4402967;29;20055;-67
2021/11/20 05:46:38;;;;;;;29.05;7.13;;;11.20;70.90;;;;;;4402151;29;20487;-67
2021/11/20 05:48:57;;;;;;;8.40;5.40;;;11.20;70.90;;;;;;4407725;29;20043;-67
2021/11/20 05:51:17;;;;;;;7.53;5.05;;;11.20;70.80;;;;;;4404992;29;20066;-67
2021/11/20 05:53:36;;;;;;;9.73;6.22;;;11.20;70.80;;;;;;4406446;29;20463;-67
2021/11/20 05:55:56;;;;;;;7.93;5.22;;;11.20;70.80;;;;;;4404999;29;20442;-67
2021/11/20 05:58:23;;;;;;;7.38;5.10;;;11.20;70.80;;;;;;4406254;29;20058;-66
2021/11/20 06:00:43;;;;;;;10.52;5.13;;;11.20;70.80;;;;;;4405242;29;20047;-67
2021/11/20 06:03:02;;;;;;;8.50;5.22;;;11.20;70.70;;;;;;4405673;29;20058;-67
2021/11/20 06:05:35;;;;;;;10.65;5.15;;;11.20;70.70;;;;;;4405493;29;20562;-67
2021/11/20 06:07:52;;;;;;;9.60;5.82;;;11.20;70.70;;;;;;4405190;29;20387;-67
2021/11/20 06:10:10;;;;;;;9.25;5.82;;;11.20;70.60;;;;;;4406133;29;20147;-67
2021/11/20 06:12:31;;;;;;;8.15;5.70;;;11.20;70.60;;;;;;4404855;29;20058;-67
2021/11/20 06:14:48;;;;;;;8.25;5.38;;;11.20;70.60;;;;;;4407150;29;20137;-67
2021/11/20 06:17:05;;;;;;;10.45;5.95;;;11.20;70.60;;;;;;4404495;29;20428;-66
2021/11/20 06:19:25;;;;;;;7.82;5.75;;;11.20;70.50;;;;;;4406124;29;20633;-67
2021/11/20 06:21:44;;;;;;;8.20;5.63;;;11.20;70.50;;;;;;4405559;29;20433;-67
2021/11/20 06:24:04;;;;;;;9.13;6.20;;;11.30;70.50;;;;;;4406285;29;20081;-67
2021/11/20 06:26:22;;;;;;;9.13;5.90;;;11.20;70.40;;;;;;4404495;29;20051;-67
2021/11/20 06:28:39;;;;;;;11.38;6.13;;;11.30;70.40;;;;;;4405626;29;20054;-67
2021/11/20 06:31:04;;;;;;;;;;;11.30;70.30;;;;;;4405332;29;20055;-67
2021/11/20 06:33:24;;;;;;;11.60;6.07;;;11.30;70.10;;;;;;4405195;29;20013;-65
2021/11/20 06:36:22;;;;;;;6.85;5.35;;;11.30;70.40;;;;;;4355383;30;20052;-65
2021/11/20 06:38:47;;;;;;;8.20;5.72;;;11.30;70.30;;;;;;4403887;29;20551;-65
2021/11/20 06:41:04;;;;;;;10.57;6.10;;;11.30;70.40;;;;;;4407392;29;20081;-67
2021/11/20 06:43:24;;;;;;;7.47;5.30;;;11.30;70.20;;;;;;4404353;29;20107;-65
2021/11/20 06:45:45;;;;;;;9.93;5.80;;;11.30;70.20;;;;;;4405690;29;20065;-66
2021/11/20 06:48:03;;;;;;;11.35;6.03;;;11.40;70.20;;;;;;4405514;29;20055;-66
2021/11/20 06:50:22;;;;;;;11.30;6.45;;;11.40;70.10;;;;;;4390489;29;20570;-67
2021/11/20 06:52:58;;;;;;;9.55;5.60;;;11.40;70.10;;;;;;4405779;29;20124;-66
2021/11/20 06:55:35;;;;;;;9.27;5.40;;;11.40;70.10;;;;;;4405735;29;20043;-66
2021/11/20 06:58:32;;;;;;;7.60;5.18;;;11.40;70.00;;;;;;4404934;29;20066;-67
2021/11/20 07:01:04;;;;;;;8.48;5.43;;;11.50;70.00;;;;;;4404055;29;20565;-66
2021/11/20 07:03:39;;;;;;;8.47;4.97;;;11.50;70.00;;;;;;4404916;29;20074;-68
2021/11/20 07:06:01;;;;;;;8.57;5.60;;;11.50;70.00;;;;;;4404316;29;20134;-68
2021/11/20 07:08:19;;;;;;;11.27;6.13;;;11.50;69.80;;;;;;4405798;29;20783;-66
2021/11/20 07:10:39;;;;;;;8.52;5.60;;;11.60;69.80;;;;;;4404646;29;20059;-66
2021/11/20 07:12:57;;;;;;;8.52;5.63;;;11.60;69.80;;;;;;4403884;29;20051;-67
2021/11/20 07:15:14;;;;;;;11.18;6.35;;;11.60;69.60;;;;;;4404695;29;20547;-67
2021/11/20 07:17:32;;;;;;;12.57;5.93;;;11.60;69.60;;;;;;4403665;29;20525;-67
2021/11/20 07:20:16;;;;;;;11.88;6.20;;;11.60;69.50;;;;;;4406140;29;20057;-68
2021/11/20 07:22:56;;;;;;;9.25;6.07;;;11.60;69.50;;;;;;4404897;29;20078;-67
2021/11/20 07:25:13;;;;;;;9.73;6.10;;;11.60;69.50;;;;;;4404411;29;20054;-67
2021/11/20 07:27:31;;;;;;;11.48;6.43;;;11.70;69.50;;;;;;4403983;29;20549;-67
2021/11/20 07:29:48;;;;;;;18.33;7.07;;;11.60;70.20;;;;;;4404069;29;20610;-67
2021/11/20 07:32:13;;;;;;;11.25;5.90;;;11.60;69.40;;;;;;4404164;29;20062;-66
2021/11/20 07:34:29;;;;;;;10.30;6.10;;;11.70;69.40;;;;;;4403657;29;20099;-68
2021/11/20 07:36:48;;;;;;;11.07;6.65;;;11.70;69.40;;;;;;4404227;29;20530;-67
2021/11/20 07:39:07;;;;;;;9.95;6.10;;;11.70;69.40;;;;;;4403317;29;20418;-67
2021/11/20 07:41:24;;;;;;;13.30;6.43;;;11.70;69.40;;;;;;4404476;29;20061;-66
2021/11/20 07:43:50;;;;;;;10.75;6.28;;;11.80;69.30;;;;;;4402860;29;20074;-66
2021/11/20 07:46:15;;;;;;;16.40;6.07;;;11.80;69.00;;;;;;4404459;29;20046;-66
2021/11/20 07:48:40;;;;;;;11.30;6.40;;;11.80;69.00;;;;;;4403065;29;20411;-67
2021/11/20 07:51:00;;;;;;;11.50;5.90;;;11.80;68.90;;;;;;4404240;29;20054;-67
2021/11/20 07:53:26;;;;;;;11.77;6.20;;;11.80;68.90;;;;;;4404747;29;20055;-66
2021/11/20 07:55:47;;;;;;;11.07;6.07;;;11.80;69.00;;;;;;4403445;29;20050;-67
2021/11/20 07:58:07;;;;;;;10.40;6.10;;;11.90;69.00;;;;;;4403749;29;20516;-66
2021/11/20 08:00:28;;;;;;;10.40;5.55;;;11.90;68.80;;;;;;4404598;29;20395;-67
2021/11/20 08:02:56;;;;;;;9.00;5.78;;;11.90;68.80;;;;;;4404034;29;20061;-67
2021/11/20 08:05:39;;;;;;;10.73;6.20;;;12.00;68.70;;;;;;4398713;29;20086;-68
2021/11/20 08:08:16;;;;;;;9.02;5.50;;;12.00;68.60;;;;;;4404705;29;20426;-68
2021/11/20 08:10:40;;;;;;;8.65;5.70;;;12.00;68.50;;;;;;4402997;29;20074;-67
2021/11/20 08:12:59;;;;;;;9.23;5.53;;;12.00;68.40;;;;;;4403457;29;20078;-68
2021/11/20 08:15:30;;;;;;;9.02;5.65;;;12.10;68.40;;;;;;4403604;29;20459;-69
2021/11/20 08:18:05;;;;;;;9.98;5.88;;;12.10;68.30;;;;;;4403927;29;20564;-65
2021/11/20 08:20:34;;;;;;;9.88;6.20;;;12.10;68.30;;;;;;4404180;29;20396;-66
2021/11/20 08:23:12;;;;;;;8.98;5.80;;;12.20;68.10;;;;;;4403812;29;20062;-66
2021/11/20 08:25:30;;;;;;;12.73;6.63;;;12.20;68.00;;;;;;4403483;29;20479;-67
2021/11/20 08:27:47;;;;;;;8.98;5.88;;;12.20;68.00;;;;;;4402700;29;20134;-67
2021/11/20 08:30:09;;;;;;;8.45;5.47;;;12.20;67.80;;;;;;4403275;29;20070;-68
2021/11/20 08:32:37;;;;;;;9.02;5.63;;;12.30;67.90;;;;;;4402972;29;20518;-67
2021/11/20 08:35:21;;;;;;;10.77;5.93;;;12.30;67.80;;;;;;4403006;29;20090;-67
2021/11/20 08:37:59;;;;;;;14.00;5.93;;;12.30;67.40;;;;;;4395081;29;20318;-67
2021/11/20 08:40:32;;;;;;;11.77;6.20;;;12.40;67.50;;;;;;4402299;29;20129;-67
2021/11/20 08:42:49;;;;;;;11.55;6.00;;;12.40;67.50;;;;;;4403532;29;20158;-67
2021/11/20 08:45:09;;;;;;;12.73;5.15;;;12.40;67.30;;;;;;4402507;29;20066;-67
2021/11/20 08:47:35;;;;;;;9.05;5.72;;;12.50;67.20;;;;;;4402862;29;20138;-67
2021/11/20 08:49:55;;;;;;;7.68;5.07;;;12.50;67.20;;;;;;4401631;29;20084;-66
2021/11/20 08:52:14;;;;;;;10.60;5.50;;;12.50;67.10;;;;;;4401510;29;20053;-66
2021/11/20 08:54:34;;;;;;;9.85;5.70;;;12.50;67.10;;;;;;4402988;29;20135;-66
2021/11/20 08:56:54;;;;;;;9.57;4.90;;;12.60;67.00;;;;;;4400977;29;20047;-67
2021/11/20 08:59:15;;;;;;;11.00;5.72;;;12.60;66.90;;;;;;4403185;29;20069;-67
2021/11/20 09:01:54;;;;;;;8.02;5.00;;;12.70;66.90;;;;;;4403399;29;20512;-67
2021/11/20 09:04:18;;;;;;;10.10;5.35;;;12.70;66.70;;;;;;4401918;29;20135;-67
2021/11/20 09:06:39;;;;;;;8.68;5.47;;;12.70;66.60;;;;;;4400481;29;20106;-67
2021/11/20 09:09:00;;;;;;;11.10;6.13;;;12.80;66.50;;;;;;4402995;29;20055;-67
2021/11/20 09:11:22;;;;;;;13.85;6.00;;;12.80;66.40;;;;;;4402549;29;20057;-67
2021/11/20 09:13:44;;;;;;;8.48;5.63;;;12.80;66.40;;;;;;4402605;29;20059;-66
2021/11/20 09:16:04;;;;;;;11.43;5.93;;;12.90;66.40;;;;;;4402740;29;20162;-67
2021/11/20 09:18:23;;;;;;;8.43;5.53;;;12.90;66.20;;;;;;4402355;29;20051;-68
2021/11/20 09:20:39;;;;;;;8.27;5.47;;;12.90;66.20;;;;;;4402936;29;20058;-66
2021/11/20 09:23:17;;;;;;;12.55;5.95;;;12.90;66.10;;;;;;4405748;29;20074;-67
2021/11/20 09:25:55;;;;;;;16.17;6.80;;;13.00;66.00;;;;;;4406563;29;20054;-68
2021/11/20 09:28:34;;;;;;;10.93;6.28;;;13.00;65.70;;;;;;4405754;29;20051;-67
2021/11/20 09:30:54;;;;;;;12.70;6.38;;;13.00;65.70;;;;;;4405889;29;20066;-68
2021/11/20 09:33:13;;;;;;;8.85;5.97;;;13.00;65.70;;;;;;4405550;29;20070;-67
2021/11/20 09:35:29;;;;;;;11.05;5.70;;;13.00;65.80;;;;;;4405132;29;20058;-68
2021/11/20 09:37:53;;;;;;;12.35;6.18;;;13.00;65.50;;;;;;4405926;29;20116;-68
2021/11/20 09:40:14;;;;;;;9.88;5.80;;;13.00;65.70;;;;;;4406699;29;20074;-68
2021/11/20 09:42:36;;;;;;;18.58;6.47;;;13.00;65.70;;;;;;4406204;29;20079;-68
2021/11/20 09:44:56;;;;;;;9.85;6.72;;;13.00;65.50;;;;;;4405427;29;20534;-68
2021/11/20 09:47:22;;;;;;;10.95;6.57;;;13.00;65.60;;;;;;4407465;29;20509;-68
2021/11/20 09:49:44;;;;;;;10.05;5.82;;;13.00;65.60;;;;;;4404753;29;20078;-67
2021/11/20 09:52:02;;;;;;;9.23;6.15;;;13.00;65.60;;;;;;4406314;29;20062;-68
2021/11/20 09:54:21;;;;;;;11.10;6.25;;;13.00;65.50;;;;;;4404948;29;20059;-67
2021/11/20 09:56:43;;;;;;;10.82;5.93;;;13.00;66.20;;;;;;4407089;29;20051;-68
2021/11/20 09:59:04;;;;;;;10.07;6.00;;;13.00;65.40;;;;;;4404653;29;20486;-69
2021/11/20 10:01:33;;;;;;;10.50;5.90;;;13.00;65.50;;;;;;4405025;29;20153;-68
2021/11/20 10:04:13;;;;;;;7.88;5.32;;;13.00;65.40;;;;;;4403454;29;20081;-67
2021/11/20 10:06:34;;;;;;;12.52;6.10;;;13.10;65.50;;;;;;4401205;29;20490;-69
2021/11/20 10:08:51;;;;;;;10.20;5.82;;;13.10;65.50;;;;;;4403634;29;20122;-68
2021/11/20 10:11:28;;;;;;;10.50;6.45;;;13.20;65.30;;;;;;4402632;29;20043;-68
2021/11/20 10:13:53;;;;;;;13.50;6.38;;;13.20;64.90;;;;;;4405020;29;20062;-69
2021/11/20 10:16:15;;;;;;;10.23;6.18;;;13.20;65.10;;;;;;4404657;29;20061;-68
2021/11/20 10:18:35;;;;;;;12.57;6.80;;;13.20;65.00;;;;;;4405293;29;20055;-68
2021/11/20 10:20:57;;;;;;;9.63;6.03;;;13.20;65.00;;;;;;4406302;29;20319;-67
2021/11/20 10:23:30;;;;;;;10.60;6.22;;;13.30;65.20;;;;;;4406425;29;20134;-67
2021/11/20 10:26:15;;;;;;;19.58;6.72;;;13.40;65.00;;;;;;4406680;29;20058;-67
2021/11/20 10:28:41;;;;;;;10.27;6.20;;;13.40;64.70;;;;;;4405834;29;20062;-68
2021/11/20 10:31:05;;;;;;;16.95;6.18;;;13.40;64.80;;;;;;4407212;29;20085;-68
2021/11/20 10:33:24;;;;;;;10.60;6.50;;;13.40;64.70;;;;;;4405225;29;20051;-69
2021/11/20 10:35:48;;;;;;;10.38;5.50;;;13.50;64.80;;;;;;4405414;29;20131;-68
2021/11/20 10:38:11;;;;;;;12.97;6.53;;;13.50;64.70;;;;;;4404952;29;20140;-68
2021/11/20 10:40:30;;;;;;;12.02;6.45;;;13.60;64.60;;;;;;4406031;29;20306;-69
2021/11/20 10:42:53;;;;;;;11.10;6.45;;;13.60;64.50;;;;;;4406277;29;20085;-69
2021/11/20 10:45:15;;;;;;;14.70;5.95;;;13.70;64.40;;;;;;4406059;29;20051;-69
2021/11/20 10:47:39;;;;;;;11.68;6.55;;;13.80;64.30;;;;;;4405144;29;20084;-69
2021/11/20 10:50:06;;;;;;;12.38;6.57;;;13.80;64.10;;;;;;4405629;29;20078;-68
2021/11/20 10:52:45;;;;;;;10.80;6.03;;;13.80;64.20;;;;;;4405355;29;20496;-68
2021/11/20 10:55:17;;;;;;;10.38;6.70;;;13.80;63.90;;;;;;4405497;29;20107;-69
2021/11/20 10:57:58;;;;;;;15.70;9.30;;;13.90;64.00;;;;;;4405922;29;20087;-68
2021/11/20 11:00:27;;;;;;;19.95;9.30;;;13.90;64.00;;;;;;4404660;29;20089;-68
2021/11/20 11:03:28;;;;;;;11.13;6.20;;;13.90;64.00;;;;;;4405587;29;20057;-68
2021/11/20 11:06:20;;;;;;;8.10;5.47;;;14.00;63.50;;;;;;4383817;29;20063;-68
2021/11/20 11:08:42;;;;;;;8.90;6.25;;;14.00;64.50;;;;;;4405857;29;20061;-69
2021/11/20 11:11:02;;;;;;;12.75;6.82;;;14.10;63.70;;;;;;4404296;29;20080;-68
2021/11/20 11:13:26;;;;;;;10.98;6.65;;;14.10;63.50;;;;;;4404605;29;20081;-68
2021/11/20 11:16:00;;;;;;;9.00;6.18;;;14.10;63.30;;;;;;4403899;29;20573;-69
2021/11/20 11:18:30;;;;;;;11.90;6.18;;;14.10;63.30;;;;;;4406182;29;20054;-69
2021/11/20 11:21:25;;;;;;;10.63;6.65;;;14.10;63.30;;;;;;4404869;29;20101;-68
2021/11/20 11:23:57;;;;;;;11.05;6.18;;;14.10;63.10;;;;;;4405491;29;20055;-68
2021/11/20 11:26:17;;;;;;;11.68;6.13;;;14.10;63.10;;;;;;4404110;29;20089;-68
2021/11/20 11:28:39;;;;;;;11.82;5.95;;;14.20;63.40;;;;;;4405126;29;20073;-68
2021/11/20 11:31:11;;;;;;;9.23;5.68;;;14.20;63.20;;;;;;4405874;29;20120;-68
2021/11/20 11:33:32;;;;;;;8.32;5.75;;;14.20;63.10;;;;;;4404634;29;20046;-67
2021/11/20 11:35:54;;;;;;;11.00;5.90;;;14.20;62.80;;;;;;4404484;29;20073;-68
2021/11/20 11:38:52;;;;;;;9.25;6.15;;;14.30;62.80;;;;;;4405115;29;20402;-68
2021/11/20 11:41:13;;;;;;;9.18;6.18;;;14.30;62.80;;;;;;4405522;29;20057;-68
2021/11/20 11:43:41;;;;;;;12.38;6.10;;;14.40;62.90;;;;;;4405351;29;20507;-67
2021/11/20 11:46:15;;;;;;;10.55;6.18;;;14.50;62.90;;;;;;4404467;29;20062;-69
2021/11/20 11:48:56;;;;;;;11.52;6.15;;;14.50;62.50;;;;;;4405596;29;20055;-67
2021/11/20 11:51:20;;;;;;;9.63;6.70;;;14.60;62.50;;;;;;4401179;29;20602;-67
2021/11/20 11:53:56;;;;;;;11.65;6.10;;;14.60;62.30;;;;;;4404573;29;20066;-68
2021/11/20 11:56:26;;;;;;;10.38;6.18;;;14.60;62.10;;;;;;4403641;29;20131;-68
2021/11/20 11:58:58;;;;;;;11.68;6.18;;;14.70;62.10;;;;;;4403363;29;20078;-68
2021/11/20 12:01:17;;;;;;;10.07;5.78;;;14.70;62.10;;;;;;4405053;29;20051;-68
2021/11/20 12:03:36;;;;;;;13.80;6.18;;;14.80;62.00;;;;;;4403112;29;20125;-68
2021/11/20 12:06:08;;;;;;;13.05;7.05;;;14.70;61.70;;;;;;4405264;29;20474;-69
2021/11/20 12:08:36;;;;;;;11.35;6.30;;;14.70;61.60;;;;;;4404367;29;20053;-71
2021/11/20 12:10:58;;;;;;;9.48;5.90;;;14.70;61.70;;;;;;4405551;29;20316;-68
2021/11/20 12:13:37;;;;;;;10.65;6.10;;;14.70;61.90;;;;;;4403469;29;20061;-70
2021/11/20 12:16:05;;;;;;;10.95;6.00;;;14.70;62.00;;;;;;4403171;29;20055;-69
2021/11/20 12:18:28;;;;;;;9.23;5.63;;;14.70;61.90;;;;;;4405192;29;20050;-70
2021/11/20 12:20:57;;;;;;;10.52;6.10;;;14.70;61.70;;;;;;4404153;29;20097;-69
2021/11/20 12:23:34;;;;;;;8.85;6.10;;;14.70;61.80;;;;;;4405044;29;20098;-67
2021/11/20 12:25:56;;;;;;;12.18;6.30;;;14.70;62.00;;;;;;4403685;29;20442;-69
2021/11/20 12:28:29;;;;;;;10.15;6.15;;;14.70;61.70;;;;;;4403274;29;20126;-70